Robert E. Mcallister — WDC8669 — position and weather

sailwx.info

Track history (hours):
 
Tides and Currents Weather Stations Pressure Air Temp Water Temp Dewpoint Dewpoint Depression Visibility Wind Speed Wind Dir Waves Ship Positions

Robert E. Mcallister

Owner: McAllister Towing & Transportation, Staten Island, NY. More information available from US FCC via Universal Licensing System and Coast Guard Vessel Documentation Center.

Last reported at 2017-Apr-27 18:30 UTC. Time now 2017-Apr-27 18:55 UTC.
Position N 39°58' W 075°07'.

Length 34 m; draft 4.3 m.

Type: Tug. MMSI: 367091120.

Date/timePositionNaut miles runAvg speedWind from/ knotsBaromVisibWave heightAir tempDewpointWater temp
2017-Apr-27 18:30N 39°58' W 075°07'1 2.4
2017-Apr-27 18:00N 39°59' W 075°05'2 3.6
2017-Apr-27 17:30N 39°58' W 075°07'4 8.1
2017-Apr-27 17:00N 39°54' W 075°08'2 3.2
2017-Apr-27 16:30N 39°53' W 075°09'0 0.9
2017-Apr-27 16:00N 39°53' W 075°10'2 3.3
2017-Apr-27 15:30N 39°54' W 075°12'0 0.0
2017-Apr-27 15:00N 39°54' W 075°12'0 0.0
2017-Apr-27 14:00N 39°54' W 075°12'0 0.0
2017-Apr-27 13:30N 39°54' W 075°12'0 0.0
2017-Apr-27 13:00N 39°54' W 075°12'0 0.0
2017-Apr-27 12:29N 39°54' W 075°12'0 0.0
2017-Apr-27 12:01N 39°54' W 075°12'0 0.0
2017-Apr-27 11:30N 39°54' W 075°12'0 0.0
2017-Apr-27 11:00N 39°54' W 075°12'0 0.0
2017-Apr-27 10:22N 39°54' W 075°12'0 0.0
2017-Apr-27 10:00N 39°54' W 075°12'0 0.0
2017-Apr-27 09:29N 39°54' W 075°12'0 0.0
2017-Apr-27 09:00N 39°54' W 075°12'0 0.0
2017-Apr-27 08:27N 39°54' W 075°12'0 0.0
2017-Apr-27 07:58N 39°54' W 075°12'0 0.0
2017-Apr-27 07:28N 39°54' W 075°12'0 0.0
2017-Apr-27 06:56N 39°54' W 075°12'0 0.0
2017-Apr-27 06:22N 39°54' W 075°12'0 0.0
2017-Apr-27 06:00N 39°54' W 075°12'0 0.0
2017-Apr-27 05:30N 39°54' W 075°12'0 0.8
2017-Apr-27 05:00N 39°53' W 075°12'4 8.8
2017-Apr-27 04:30N 39°51' W 075°17'3 5.8
2017-Apr-27 04:00N 39°51' W 075°20'0 0.4
2017-Apr-27 03:30N 39°51' W 075°20'0 0.6
2017-Apr-27 03:00N 39°51' W 075°21'0 0.0
2017-Apr-27 02:30N 39°51' W 075°21'0 0.1
2017-Apr-27 02:00N 39°51' W 075°21'4 7.2
2017-Apr-27 01:30N 39°51' W 075°16'4 8.2
2017-Apr-27 01:00N 39°53' W 075°11'3 5.4
2017-Apr-27 00:30N 39°54' W 075°08'0 0.8
2017-Apr-27 00:01N 39°54' W 075°08'1 2.5
2017-Apr-26 23:31N 39°53' W 075°09'2 3.9
2017-Apr-26 23:01N 39°54' W 075°08'2 4.7
2017-Apr-26 22:31N 39°53' W 075°10'2 3.0
2017-Apr-26 22:01N 39°54' W 075°12'0 0.0
2017-Apr-26 21:30N 39°54' W 075°12'0 0.0
2017-Apr-26 21:00N 39°54' W 075°12'0 0.0
2017-Apr-26 20:30N 39°54' W 075°12'0 0.0
2017-Apr-26 20:00N 39°54' W 075°12'0 0.0
2017-Apr-26 19:30N 39°54' W 075°12'0 0.0
2017-Apr-26 19:00N 39°54' W 075°12'0 0.0
2017-Apr-26 18:30N 39°54' W 075°12'0 0.0
2017-Apr-26 18:00N 39°54' W 075°12'0 0.0
2017-Apr-26 17:30N 39°54' W 075°12'0 0.0
2017-Apr-26 17:00N 39°54' W 075°12'0 0.0
2017-Apr-26 16:30N 39°54' W 075°12'0 0.0
2017-Apr-26 16:00N 39°54' W 075°12'0 0.0
2017-Apr-26 15:30N 39°54' W 075°12'0 0.0
2017-Apr-26 15:00N 39°54' W 075°12'0 0.0
2017-Apr-26 14:30N 39°54' W 075°12'0 0.0
2017-Apr-26 13:30N 39°54' W 075°12'0 0.0
2017-Apr-26 13:01N 39°54' W 075°12'0 0.0
2017-Apr-26 12:31N 39°54' W 075°12'0 0.7
2017-Apr-26 12:00N 39°53' W 075°12'3 6.4
2017-Apr-26 11:30N 39°54' W 075°08'0 0.3
2017-Apr-26 11:00N 39°54' W 075°08'0 0.0
2017-Apr-26 10:30N 39°54' W 075°08'0 0.2
2017-Apr-26 10:00N 39°54' W 075°08'2 4.2
2017-Apr-26 09:30N 39°53' W 075°10'2 3.0
2017-Apr-26 08:53N 39°54' W 075°12'0 0.0
2017-Apr-26 08:03N 39°54' W 075°12'0 0.0
2017-Apr-26 07:45N 39°54' W 075°12'0 0.0
2017-Apr-26 07:29N 39°54' W 075°12'0 0.0
2017-Apr-26 07:00N 39°54' W 075°12'0 0.0
2017-Apr-26 06:30N 39°54' W 075°12'0 0.0
2017-Apr-26 04:51N 39°54' W 075°12'0 0.0
2017-Apr-26 04:30N 39°54' W 075°12'0 0.0
2017-Apr-26 04:00N 39°54' W 075°12'0 0.0
2017-Apr-26 03:30N 39°54' W 075°12'0 0.0
2017-Apr-26 03:00N 39°54' W 075°12'0 0.0
2017-Apr-26 02:30N 39°54' W 075°12'0 0.0
2017-Apr-26 02:00N 39°54' W 075°12'0 0.0
2017-Apr-26 01:30N 39°54' W 075°12'0 0.0
2017-Apr-26 01:00N 39°54' W 075°12'0 0.0
2017-Apr-26 00:30N 39°54' W 075°12'0 0.0
2017-Apr-26 00:00N 39°54' W 075°12'0 0.0
2017-Apr-25 23:30N 39°54' W 075°12'0 0.0
2017-Apr-25 23:00N 39°54' W 075°12'0 0.0
2017-Apr-25 22:30N 39°54' W 075°12'0 0.0
2017-Apr-25 22:00N 39°54' W 075°12'0 0.0
2017-Apr-25 21:30N 39°54' W 075°12'0 0.0
2017-Apr-25 21:00N 39°54' W 075°12'0 0.0
2017-Apr-25 20:30N 39°54' W 075°12'0 0.0
2017-Apr-25 20:00N 39°54' W 075°12'0 0.6
2017-Apr-25 19:30N 39°53' W 075°12'0 0.0
2017-Apr-25 19:00N 39°53' W 075°12'0 0.0
2017-Apr-25 18:30N 39°53' W 075°12'0 0.0
2017-Apr-25 18:00N 39°53' W 075°12'0 0.0
2017-Apr-25 17:30N 39°53' W 075°12'0 0.0
2017-Apr-25 17:00N 39°53' W 075°12'0 0.0
2017-Apr-25 16:30N 39°53' W 075°12'0 0.1
2017-Apr-25 16:00N 39°54' W 075°12'3 5.9
2017-Apr-25 15:30N 39°51' W 075°14'1 2.8
2017-Apr-25 15:00N 39°51' W 075°16'0 0.3
2017-Apr-25 14:30N 39°51' W 075°16'3 3.2
2017-Apr-25 13:30N 39°51' W 075°20'0 0.7
2017-Apr-25 13:00N 39°51' W 075°20'2 4.3
2017-Apr-25 12:30N 39°50' W 075°22'1 2.8
2017-Apr-25 12:00N 39°51' W 075°21'0 0.9
2017-Apr-25 11:30N 39°51' W 075°20'0 0.0
2017-Apr-25 11:00N 39°51' W 075°20'0 0.0
2017-Apr-25 10:30N 39°51' W 075°20'0 0.0
2017-Apr-25 10:00N 39°51' W 075°20'0 0.0
2017-Apr-25 09:30N 39°51' W 075°20'0 0.0
2017-Apr-25 09:00N 39°51' W 075°20'0 0.0
2017-Apr-25 08:30N 39°51' W 075°20'0 0.0
2017-Apr-25 07:59N 39°51' W 075°20'0 0.0
2017-Apr-25 07:30N 39°51' W 075°20'0 0.0
2017-Apr-25 07:00N 39°51' W 075°20'0 0.0
2017-Apr-25 06:30N 39°51' W 075°20'0 0.0
2017-Apr-25 06:00N 39°51' W 075°20'0 0.0
2017-Apr-25 05:30N 39°51' W 075°20'0 0.0
2017-Apr-25 05:00N 39°51' W 075°20'3 5.4
2017-Apr-25 04:30N 39°51' W 075°17'1 2.8
2017-Apr-25 04:00N 39°51' W 075°15'3 5.6
2017-Apr-25 03:30N 39°53' W 075°12'1 2.1
2017-Apr-25 03:00N 39°54' W 075°12'0 0.0
2017-Apr-25 02:31N 39°54' W 075°12'0 0.0
2017-Apr-25 02:01N 39°54' W 075°12'0 0.0
2017-Apr-25 01:31N 39°54' W 075°12'0 0.0
2017-Apr-25 01:01N 39°54' W 075°12'0 0.0
2017-Apr-25 00:31N 39°54' W 075°12'0 0.0
2017-Apr-25 00:00N 39°54' W 075°12'0 0.0
2017-Apr-24 23:31N 39°54' W 075°12'0 0.0
2017-Apr-24 23:01N 39°54' W 075°12'0 0.0
2017-Apr-24 22:31N 39°54' W 075°12'0 0.0
2017-Apr-24 22:01N 39°54' W 075°12'0 0.0
2017-Apr-24 21:31N 39°54' W 075°12'0 0.0
2017-Apr-24 21:01N 39°54' W 075°12'0 0.0
2017-Apr-24 20:31N 39°54' W 075°12'0 0.0
2017-Apr-24 20:01N 39°54' W 075°12'0 0.0
2017-Apr-24 19:30N 39°54' W 075°12'0 0.0
2017-Apr-24 19:01N 39°54' W 075°12'0 0.0
2017-Apr-24 18:30N 39°54' W 075°12'0 0.0
2017-Apr-24 18:00N 39°54' W 075°12'0 0.0
2017-Apr-24 17:30N 39°54' W 075°12'0 0.0
2017-Apr-24 17:00N 39°54' W 075°12'0 0.6
2017-Apr-24 16:30N 39°54' W 075°12'0 1.0
2017-Apr-24 16:00N 39°53' W 075°12'0 0.5
2017-Apr-24 15:30N 39°54' W 075°12'0 0.0
2017-Apr-24 15:00N 39°54' W 075°12'0 0.0
2017-Apr-24 14:30N 39°54' W 075°12'0 0.0
2017-Apr-24 13:31N 39°54' W 075°12'0 0.0
2017-Apr-24 13:00N 39°54' W 075°12'0 0.0
2017-Apr-24 12:30N 39°54' W 075°12'0 0.0
2017-Apr-24 12:01N 39°54' W 075°12'0 0.0
2017-Apr-24 11:31N 39°54' W 075°12'0 0.0
2017-Apr-24 11:00N 39°54' W 075°12'0 0.0
2017-Apr-24 10:30N 39°54' W 075°12'0 0.0
2017-Apr-24 10:00N 39°54' W 075°12'0 0.0
2017-Apr-24 09:30N 39°54' W 075°12'0 0.0
2017-Apr-24 09:00N 39°54' W 075°12'0 0.0
2017-Apr-24 08:30N 39°54' W 075°12'0 0.0
2017-Apr-24 08:00N 39°54' W 075°12'0 0.0
2017-Apr-24 07:30N 39°54' W 075°12'0 0.0
2017-Apr-24 07:00N 39°54' W 075°12'0 0.0
2017-Apr-24 06:30N 39°54' W 075°12'0 0.0
2017-Apr-24 06:00N 39°54' W 075°12'0 0.0
2017-Apr-24 05:30N 39°54' W 075°12'0 0.0
2017-Apr-24 05:00N 39°54' W 075°12'0 0.0
2017-Apr-24 04:30N 39°54' W 075°12'0 0.0
2017-Apr-24 04:00N 39°54' W 075°12'0 0.0
2017-Apr-24 03:30N 39°54' W 075°12'0 0.0
2017-Apr-24 03:00N 39°54' W 075°12'0 0.0
2017-Apr-24 02:30N 39°54' W 075°12'0 0.0
2017-Apr-24 02:00N 39°54' W 075°12'0 0.0
2017-Apr-24 01:30N 39°54' W 075°12'3 5.2
2017-Apr-24 01:00N 39°52' W 075°14'1 2.1
2017-Apr-24 00:30N 39°51' W 075°15'0 0.1
2017-Apr-24 00:00N 39°51' W 075°15'0 0.1
2017-Apr-23 23:30N 39°51' W 075°15'0 0.0
2017-Apr-23 23:00N 39°51' W 075°15'4 7.6
2017-Apr-23 22:30N 39°53' W 075°11'1 1.2
2017-Apr-23 22:00N 39°53' W 075°12'1 1.6
2017-Apr-23 21:30N 39°54' W 075°12'0 0.0
2017-Apr-23 21:00N 39°54' W 075°12'0 0.0
2017-Apr-23 20:30N 39°54' W 075°12'0 0.0
2017-Apr-23 20:00N 39°54' W 075°12'0 0.0
2017-Apr-23 19:30N 39°54' W 075°12'3 5.8
2017-Apr-23 19:00N 39°51' W 075°14'5 9.5
2017-Apr-23 18:30N 39°51' W 075°20'0 0.0
2017-Apr-23 18:00N 39°51' W 075°20'0 0.1
2017-Apr-23 17:30N 39°51' W 075°21'0 0.0
2017-Apr-23 17:00N 39°51' W 075°21'0 0.0
2017-Apr-23 16:30N 39°51' W 075°21'0 0.0
2017-Apr-23 16:00N 39°51' W 075°21'0 0.0
2017-Apr-23 15:30N 39°51' W 075°21'3 5.3
2017-Apr-23 15:00N 39°51' W 075°17'1 0.6
2017-Apr-23 14:00N 39°51' W 075°16'3 6.5
2017-Apr-23 13:30N 39°52' W 075°13'4 7.6
2017-Apr-23 13:00N 39°54' W 075°08'4 7.4
2017-Apr-23 12:30N 39°58' W 075°08'4 7.9
2017-Apr-23 12:00N 39°60' W 075°04'4 7.9
2017-Apr-23 11:30N 40°02' W 074°59'4 8.9
2017-Apr-23 11:00N 40°04' W 074°54'5 2.2
2017-Apr-23 08:36N 40°08' W 074°49'1 7.0
2017-Apr-23 08:30N 40°07' W 074°50'4 7.5
2017-Apr-23 08:00N 40°05' W 074°54'4 8.2
2017-Apr-23 07:30N 40°03' W 074°58'4 8.4
2017-Apr-23 07:00N 40°01' W 075°03'4 7.9
2017-Apr-23 06:30N 39°58' W 075°07'4 7.4
2017-Apr-23 06:00N 39°54' W 075°08'3 5.6
2017-Apr-23 05:30N 39°53' W 075°11'1 2.0
2017-Apr-23 05:00N 39°54' W 075°12'0 0.0
2017-Apr-23 04:30N 39°54' W 075°12'0 0.0
2017-Apr-23 04:00N 39°54' W 075°12'0 0.0
2017-Apr-23 03:30N 39°54' W 075°12'3 5.5
2017-Apr-23 03:00N 39°54' W 075°08'1 1.7
2017-Apr-23 02:30N 39°54' W 075°08'0 0.6
2017-Apr-23 02:00N 39°54' W 075°08'0 0.5
2017-Apr-23 01:30N 39°54' W 075°08'1 1.5
2017-Apr-23 01:00N 39°53' W 075°08'2 4.0
2017-Apr-23 00:30N 39°53' W 075°11'2 4.1
2017-Apr-23 00:00N 39°53' W 075°08'1 2.5
2017-Apr-22 23:30N 39°53' W 075°10'2 3.6
2017-Apr-22 23:00N 39°54' W 075°12'0 0.0
2017-Apr-22 22:30N 39°54' W 075°12'0 0.0
2017-Apr-22 22:00N 39°54' W 075°12'0 0.0
2017-Apr-22 21:30N 39°54' W 075°12'0 0.9
2017-Apr-22 21:00N 39°54' W 075°12'0 0.2
2017-Apr-22 20:30N 39°54' W 075°12'0 0.7
2017-Apr-22 20:00N 39°54' W 075°12'0 0.0
2017-Apr-22 19:30N 39°54' W 075°12'0 0.0
2017-Apr-22 19:00N 39°54' W 075°12'0 0.0
2017-Apr-22 18:30N 39°54' W 075°12'0 0.0
2017-Apr-22 18:00N 39°54' W 075°12'0 0.0
2017-Apr-22 17:30N 39°54' W 075°12'2 4.2
2017-Apr-22 17:00N 39°53' W 075°09'2 3.9
2017-Apr-22 16:30N 39°54' W 075°08'0 0.5
2017-Apr-22 16:00N 39°54' W 075°08'3 5.5
2017-Apr-22 15:30N 39°53' W 075°11'1 2.2
2017-Apr-22 15:00N 39°54' W 075°12'0 0.0
2017-Apr-22 14:30N 39°54' W 075°12'0 0.0
2017-Apr-22 13:30N 39°54' W 075°12'0 0.0
2017-Apr-22 13:00N 39°54' W 075°12'0 0.0
2017-Apr-22 12:30N 39°54' W 075°12'0 0.0
2017-Apr-22 12:00N 39°54' W 075°12'0 0.0
2017-Apr-22 11:30N 39°54' W 075°12'0 0.0
2017-Apr-22 11:00N 39°54' W 075°12'0 0.0
2017-Apr-22 10:30N 39°54' W 075°12'0 0.0
2017-Apr-22 10:00N 39°54' W 075°12'0 0.0
2017-Apr-22 09:30N 39°54' W 075°12'0 0.0
2017-Apr-22 09:00N 39°54' W 075°12'0 0.0
2017-Apr-22 08:30N 39°54' W 075°12'0 0.0
2017-Apr-22 08:00N 39°54' W 075°12'0 0.0
2017-Apr-22 07:31N 39°54' W 075°12'4 7.7
2017-Apr-22 07:00N 39°51' W 075°16'5 9.7
2017-Apr-22 06:31N 39°50' W 075°22'2 5.0
2017-Apr-22 06:00N 39°49' W 075°24'0 0.2
2017-Apr-22 05:31N 39°49' W 075°24'2 3.1
2017-Apr-22 05:00N 39°50' W 075°23'5 9.5
2017-Apr-22 04:31N 39°51' W 075°17'4 8.9
2017-Apr-22 04:00N 39°53' W 075°12'1 1.2
2017-Apr-22 03:30N 39°54' W 075°12'0 0.0
2017-Apr-22 03:00N 39°54' W 075°12'0 0.0
2017-Apr-22 02:30N 39°54' W 075°12'0 0.0
2017-Apr-22 02:01N 39°54' W 075°12'0 0.0
2017-Apr-22 01:31N 39°54' W 075°12'0 0.0
2017-Apr-22 01:01N 39°54' W 075°12'0 0.0
2017-Apr-22 00:30N 39°54' W 075°12'0 0.0
2017-Apr-22 00:01N 39°54' W 075°12'0 0.0
2017-Apr-21 23:30N 39°54' W 075°12'0 0.0
2017-Apr-21 23:00N 39°54' W 075°12'0 0.0
2017-Apr-21 22:30N 39°54' W 075°12'0 0.0
2017-Apr-21 22:00N 39°54' W 075°12'0 0.0
2017-Apr-21 21:30N 39°54' W 075°12'0 0.0
2017-Apr-21 21:00N 39°54' W 075°12'0 0.0
2017-Apr-21 20:31N 39°54' W 075°12'0 0.0
2017-Apr-21 20:01N 39°54' W 075°12'1 2.0
2017-Apr-21 19:30N 39°53' W 075°11'4 7.5
2017-Apr-21 19:01N 39°56' W 075°08'2 4.7
2017-Apr-21 18:31N 39°58' W 075°07'0 0.2
2017-Apr-21 18:00N 39°58' W 075°07'1 1.4
2017-Apr-21 17:31N 39°58' W 075°07'3 6.2
2017-Apr-21 17:01N 39°55' W 075°08'1 1.9
2017-Apr-21 16:31N 39°54' W 075°08'3 5.5
2017-Apr-21 16:00N 39°53' W 075°12'0 1.0
2017-Apr-21 15:30N 39°54' W 075°12'0 0.0
2017-Apr-21 15:00N 39°54' W 075°12'0 0.0
2017-Apr-21 14:30N 39°54' W 075°12'0 0.0
2017-Apr-21 13:31N 39°54' W 075°12'0 0.0
2017-Apr-21 13:00N 39°54' W 075°12'0 0.0
2017-Apr-21 12:30N 39°54' W 075°12'0 0.0
2017-Apr-21 12:00N 39°54' W 075°12'0 0.0
2017-Apr-21 11:30N 39°54' W 075°12'0 0.0
2017-Apr-21 11:01N 39°54' W 075°12'0 0.0
2017-Apr-21 10:30N 39°54' W 075°12'1 1.3
2017-Apr-21 10:00N 39°53' W 075°12'611.1
2017-Apr-21 09:31N 39°51' W 075°18'611.6
2017-Apr-21 09:01N 39°48' W 075°25'611.2
2017-Apr-21 08:31N 39°44' W 075°30'611.2
2017-Apr-21 08:00N 39°39' W 075°33'5 9.9
2017-Apr-21 07:30N 39°34' W 075°33'510.5
2017-Apr-21 07:01N 39°29' W 075°34'510.1
2017-Apr-21 06:30N 39°25' W 075°30'510.1
2017-Apr-21 06:00N 39°21' W 075°26'510.0
2017-Apr-21 05:31N 39°17' W 075°22'5 9.8
2017-Apr-21 05:00N 39°13' W 075°18'5 9.8
2017-Apr-21 04:30N 39°09' W 075°14'510.3
2017-Apr-21 04:00N 39°05' W 075°11'510.4
2017-Apr-21 03:30N 38°60' W 075°08'510.3
2017-Apr-21 03:00N 38°55' W 075°06'59 8.6
2017-Apr-20 20:08N 39°33' W 074°07'210.4
2017-Apr-20 19:58N 39°35' W 074°06'5510.3
2017-Apr-20 14:33N 40°30' W 073°56'610.6
2017-Apr-20 14:01N 40°34' W 074°02'611.7
2017-Apr-20 13:30N 40°39' W 074°05'4 7.7
2017-Apr-20 13:00N 40°38' W 074°10'0 0.0
2017-Apr-20 12:30N 40°38' W 074°10'0 0.0
2017-Apr-20 12:01N 40°38' W 074°10'0 0.0
2017-Apr-20 11:30N 40°38' W 074°10'1 2.1
2017-Apr-20 11:01N 40°39' W 074°11'0 0.2
2017-Apr-20 10:26N 40°39' W 074°11'0 0.0
2017-Apr-20 09:57N 40°39' W 074°11'1 1.6
2017-Apr-20 09:30N 40°39' W 074°10'3 5.8
2017-Apr-20 09:01N 40°39' W 074°07'3 5.7
2017-Apr-20 08:30N 40°38' W 074°03'2 3.7
2017-Apr-20 08:00N 40°39' W 074°05'4 7.2
2017-Apr-20 07:30N 40°38' W 074°10'0 0.0
2017-Apr-20 07:00N 40°38' W 074°10'0 0.0
2017-Apr-20 06:30N 40°38' W 074°10'0 0.0
2017-Apr-20 06:00N 40°38' W 074°10'0 0.0
2017-Apr-20 05:30N 40°38' W 074°10'0 0.0
2017-Apr-20 05:00N 40°38' W 074°10'0 0.0
2017-Apr-20 04:30N 40°38' W 074°10'0 0.0
2017-Apr-20 04:00N 40°38' W 074°10'0 0.0
2017-Apr-20 03:30N 40°38' W 074°10'0 0.0
2017-Apr-20 03:00N 40°38' W 074°10'0 0.0
2017-Apr-20 02:31N 40°38' W 074°10'4 1.0
2017-Apr-19 22:46N 40°35' W 074°12'3 9.5
2017-Apr-19 22:29N 40°38' W 074°12'4 8.8
2017-Apr-19 22:00N 40°39' W 074°07'2 4.0
2017-Apr-19 21:30N 40°40' W 074°05'1 2.1
2017-Apr-19 21:00N 40°40' W 074°04'3 5.9
2017-Apr-19 20:30N 40°37' W 074°03'2 3.5
2017-Apr-19 20:01N 40°38' W 074°04'5 9.2
2017-Apr-19 19:30N 40°39' W 074°10'5 3.3
2017-Apr-19 17:52N 40°34' W 074°13'2 4.9
2017-Apr-19 17:30N 40°36' W 074°12'2 4.5
2017-Apr-19 17:00N 40°38' W 074°12'0 0.2
2017-Apr-19 16:30N 40°38' W 074°12'0 0.2
2017-Apr-19 16:00N 40°38' W 074°12'2 3.6
2017-Apr-19 15:30N 40°38' W 074°10'0 0.0
2017-Apr-19 15:01N 40°38' W 074°10'0 0.0
2017-Apr-19 14:30N 40°38' W 074°10'0 0.0
2017-Apr-19 13:30N 40°38' W 074°10'0 0.0
2017-Apr-19 13:00N 40°38' W 074°10'0 0.0
2017-Apr-19 12:30N 40°38' W 074°10'0 0.0
2017-Apr-19 12:01N 40°38' W 074°10'0 0.0
2017-Apr-19 11:30N 40°38' W 074°10'0 0.0
2017-Apr-19 11:00N 40°38' W 074°10'0 0.0
2017-Apr-19 10:30N 40°38' W 074°10'0 0.0
2017-Apr-19 10:00N 40°38' W 074°10'0 0.0
2017-Apr-19 09:31N 40°38' W 074°10'0 0.0
2017-Apr-19 09:01N 40°38' W 074°10'0 0.0
2017-Apr-19 08:30N 40°38' W 074°10'0 0.0
2017-Apr-19 08:00N 40°38' W 074°10'0 0.0
2017-Apr-19 07:30N 40°38' W 074°10'0 0.0
2017-Apr-19 07:00N 40°38' W 074°10'0 0.0
2017-Apr-19 06:30N 40°38' W 074°10'0 0.0
2017-Apr-19 05:59N 40°38' W 074°10'0 0.0
2017-Apr-19 05:30N 40°38' W 074°10'0 0.0
2017-Apr-19 05:00N 40°38' W 074°10'0 0.0
2017-Apr-19 04:30N 40°38' W 074°10'0 0.0
2017-Apr-19 04:00N 40°38' W 074°10'0 0.0
2017-Apr-19 03:30N 40°38' W 074°10'0 0.0
2017-Apr-19 03:00N 40°38' W 074°10'0 0.0
2017-Apr-19 02:30N 40°38' W 074°10'0 0.0
2017-Apr-19 02:00N 40°38' W 074°10'0 0.0
2017-Apr-19 01:30N 40°38' W 074°10'0 0.0
2017-Apr-19 01:00N 40°38' W 074°10'0 0.0
2017-Apr-19 00:30N 40°38' W 074°10'0 0.0
2017-Apr-19 00:00N 40°38' W 074°10'0 0.0
2017-Apr-18 23:30N 40°38' W 074°10'0 0.0
2017-Apr-18 22:59N 40°38' W 074°10'0 0.0
2017-Apr-18 22:30N 40°38' W 074°10'0 0.9
2017-Apr-18 22:00N 40°38' W 074°09'1 2.0
2017-Apr-18 21:30N 40°39' W 074°09'1 2.9
2017-Apr-18 21:00N 40°41' W 074°09'0 0.1
2017-Apr-18 20:30N 40°41' W 074°09'0 0.0
2017-Apr-18 20:00N 40°41' W 074°09'1 1.7
2017-Apr-18 19:30N 40°40' W 074°09'2 3.5
2017-Apr-18 19:00N 40°38' W 074°10'0 0.0
2017-Apr-18 18:30N 40°38' W 074°10'0 0.0
2017-Apr-18 18:00N 40°38' W 074°10'0 0.0
2017-Apr-18 17:30N 40°38' W 074°10'0 0.0
2017-Apr-18 17:00N 40°38' W 074°10'0 0.0
2017-Apr-18 16:30N 40°38' W 074°10'0 0.0
2017-Apr-18 16:00N 40°38' W 074°10'0 0.0
2017-Apr-18 15:29N 40°38' W 074°10'0 0.0
2017-Apr-18 15:00N 40°38' W 074°10'0 0.0
2017-Apr-18 14:30N 40°38' W 074°10'0 0.0
2017-Apr-18 13:30N 40°38' W 074°10'0 0.1
2017-Apr-18 12:59N 40°38' W 074°10'0 0.0
2017-Apr-18 12:30N 40°38' W 074°10'0 0.0
2017-Apr-18 12:00N 40°38' W 074°10'0 0.0
2017-Apr-18 11:30N 40°38' W 074°10'0 0.0
2017-Apr-18 11:00N 40°38' W 074°10'0 0.0
2017-Apr-18 10:30N 40°38' W 074°10'0 0.0
2017-Apr-18 10:00N 40°38' W 074°10'0 0.0
2017-Apr-18 09:30N 40°38' W 074°10'2 3.1
2017-Apr-18 09:00N 40°40' W 074°09'0 0.2
2017-Apr-18 08:30N 40°40' W 074°09'0 0.0
2017-Apr-18 08:00N 40°40' W 074°09'0 0.4
2017-Apr-18 07:30N 40°40' W 074°09'2 4.4
2017-Apr-18 07:00N 40°38' W 074°11'1 1.5
2017-Apr-18 06:30N 40°38' W 074°12'0 0.0
2017-Apr-18 06:00N 40°38' W 074°12'1 2.1
2017-Apr-18 05:30N 40°39' W 074°11'2 5.0
2017-Apr-18 05:00N 40°39' W 074°08'2 5.0
2017-Apr-18 04:30N 40°39' W 074°05'2 4.0
2017-Apr-18 04:00N 40°37' W 074°03'1 2.7
2017-Apr-18 03:30N 40°39' W 074°04'4 7.3
2017-Apr-18 03:00N 40°38' W 074°09'1 1.6
2017-Apr-18 02:30N 40°38' W 074°10'0 0.0
2017-Apr-18 02:00N 40°38' W 074°10'0 0.0
2017-Apr-18 01:30N 40°38' W 074°10'0 0.0
2017-Apr-18 01:00N 40°38' W 074°10'0 0.0
2017-Apr-18 00:30N 40°38' W 074°10'0 0.0
2017-Apr-18 00:00N 40°38' W 074°10'0 0.0
2017-Apr-17 23:30N 40°38' W 074°10'0 0.0
2017-Apr-17 23:00N 40°38' W 074°10'2 5.0
2017-Apr-17 22:30N 40°41' W 074°09'0 0.8
2017-Apr-17 22:00N 40°41' W 074°08'1 2.4
2017-Apr-17 21:30N 40°39' W 074°09'2 3.3
2017-Apr-17 21:00N 40°39' W 074°07'3 5.5
2017-Apr-17 20:30N 40°38' W 074°03'2 3.7
2017-Apr-17 20:00N 40°36' W 074°02'4 8.6
2017-Apr-17 19:30N 40°40' W 074°05'1 1.3
2017-Apr-17 19:00N 40°40' W 074°04'  
Track history (hours):
 
Tides and Currents Weather Stations Pressure Air Temp Water Temp Dewpoint Dewpoint Depression Visibility Wind Speed Wind Dir Waves Ship Positions

Robert E. Mcallister

Owner: McAllister Towing & Transportation, Staten Island, NY. More information available from US FCC via Universal Licensing System and Coast Guard Vessel Documentation Center.

Last reported at 2017-Apr-27 18:30 UTC. Time now 2017-Apr-27 18:55 UTC.
Position N 39°58' W 075°07'.

Length 34 m; draft 4.3 m.

Type: Tug. MMSI: 367091120.

Date/timePositionNaut miles runAvg speedWind from/ knotsBaromVisibWave heightAir tempDewpointWater temp
2017-Apr-27 18:30N 39°58' W 075°07'1 2.4
2017-Apr-27 18:00N 39°59' W 075°05'2 3.6
2017-Apr-27 17:30N 39°58' W 075°07'4 8.1
2017-Apr-27 17:00N 39°54' W 075°08'2 3.2
2017-Apr-27 16:30N 39°53' W 075°09'0 0.9
2017-Apr-27 16:00N 39°53' W 075°10'2 3.3
2017-Apr-27 15:30N 39°54' W 075°12'0 0.0
2017-Apr-27 15:00N 39°54' W 075°12'0 0.0
2017-Apr-27 14:00N 39°54' W 075°12'0 0.0
2017-Apr-27 13:30N 39°54' W 075°12'0 0.0
2017-Apr-27 13:00N 39°54' W 075°12'0 0.0
2017-Apr-27 12:29N 39°54' W 075°12'0 0.0
2017-Apr-27 12:01N 39°54' W 075°12'0 0.0
2017-Apr-27 11:30N 39°54' W 075°12'0 0.0
2017-Apr-27 11:00N 39°54' W 075°12'0 0.0
2017-Apr-27 10:22N 39°54' W 075°12'0 0.0
2017-Apr-27 10:00N 39°54' W 075°12'0 0.0
2017-Apr-27 09:29N 39°54' W 075°12'0 0.0
2017-Apr-27 09:00N 39°54' W 075°12'0 0.0
2017-Apr-27 08:27N 39°54' W 075°12'0 0.0
2017-Apr-27 07:58N 39°54' W 075°12'0 0.0
2017-Apr-27 07:28N 39°54' W 075°12'0 0.0
2017-Apr-27 06:56N 39°54' W 075°12'0 0.0
2017-Apr-27 06:22N 39°54' W 075°12'0 0.0
2017-Apr-27 06:00N 39°54' W 075°12'0 0.0
2017-Apr-27 05:30N 39°54' W 075°12'0 0.8
2017-Apr-27 05:00N 39°53' W 075°12'4 8.8
2017-Apr-27 04:30N 39°51' W 075°17'3 5.8
2017-Apr-27 04:00N 39°51' W 075°20'0 0.4
2017-Apr-27 03:30N 39°51' W 075°20'0 0.6
2017-Apr-27 03:00N 39°51' W 075°21'0 0.0
2017-Apr-27 02:30N 39°51' W 075°21'0 0.1
2017-Apr-27 02:00N 39°51' W 075°21'4 7.2
2017-Apr-27 01:30N 39°51' W 075°16'4 8.2
2017-Apr-27 01:00N 39°53' W 075°11'3 5.4
2017-Apr-27 00:30N 39°54' W 075°08'0 0.8
2017-Apr-27 00:01N 39°54' W 075°08'1 2.5
2017-Apr-26 23:31N 39°53' W 075°09'2 3.9
2017-Apr-26 23:01N 39°54' W 075°08'2 4.7
2017-Apr-26 22:31N 39°53' W 075°10'2 3.0
2017-Apr-26 22:01N 39°54' W 075°12'0 0.0
2017-Apr-26 21:30N 39°54' W 075°12'0 0.0
2017-Apr-26 21:00N 39°54' W 075°12'0 0.0
2017-Apr-26 20:30N 39°54' W 075°12'0 0.0
2017-Apr-26 20:00N 39°54' W 075°12'0 0.0
2017-Apr-26 19:30N 39°54' W 075°12'0 0.0
2017-Apr-26 19:00N 39°54' W 075°12'0 0.0
2017-Apr-26 18:30N 39°54' W 075°12'0 0.0
2017-Apr-26 18:00N 39°54' W 075°12'0 0.0
2017-Apr-26 17:30N 39°54' W 075°12'0 0.0
2017-Apr-26 17:00N 39°54' W 075°12'0 0.0
2017-Apr-26 16:30N 39°54' W 075°12'0 0.0
2017-Apr-26 16:00N 39°54' W 075°12'0 0.0
2017-Apr-26 15:30N 39°54' W 075°12'0 0.0
2017-Apr-26 15:00N 39°54' W 075°12'0 0.0
2017-Apr-26 14:30N 39°54' W 075°12'0 0.0
2017-Apr-26 13:30N 39°54' W 075°12'0 0.0
2017-Apr-26 13:01N 39°54' W 075°12'0 0.0
2017-Apr-26 12:31N 39°54' W 075°12'0 0.7
2017-Apr-26 12:00N 39°53' W 075°12'3 6.4
2017-Apr-26 11:30N 39°54' W 075°08'0 0.3
2017-Apr-26 11:00N 39°54' W 075°08'0 0.0
2017-Apr-26 10:30N 39°54' W 075°08'0 0.2
2017-Apr-26 10:00N 39°54' W 075°08'2 4.2
2017-Apr-26 09:30N 39°53' W 075°10'2 3.0
2017-Apr-26 08:53N 39°54' W 075°12'0 0.0
2017-Apr-26 08:03N 39°54' W 075°12'0 0.0
2017-Apr-26 07:45N 39°54' W 075°12'0 0.0
2017-Apr-26 07:29N 39°54' W 075°12'0 0.0
2017-Apr-26 07:00N 39°54' W 075°12'0 0.0
2017-Apr-26 06:30N 39°54' W 075°12'0 0.0
2017-Apr-26 04:51N 39°54' W 075°12'0 0.0
2017-Apr-26 04:30N 39°54' W 075°12'0 0.0
2017-Apr-26 04:00N 39°54' W 075°12'0 0.0
2017-Apr-26 03:30N 39°54' W 075°12'0 0.0
2017-Apr-26 03:00N 39°54' W 075°12'0 0.0
2017-Apr-26 02:30N 39°54' W 075°12'0 0.0
2017-Apr-26 02:00N 39°54' W 075°12'0 0.0
2017-Apr-26 01:30N 39°54' W 075°12'0 0.0
2017-Apr-26 01:00N 39°54' W 075°12'0 0.0
2017-Apr-26 00:30N 39°54' W 075°12'0 0.0
2017-Apr-26 00:00N 39°54' W 075°12'0 0.0
2017-Apr-25 23:30N 39°54' W 075°12'0 0.0
2017-Apr-25 23:00N 39°54' W 075°12'0 0.0
2017-Apr-25 22:30N 39°54' W 075°12'0 0.0
2017-Apr-25 22:00N 39°54' W 075°12'0 0.0
2017-Apr-25 21:30N 39°54' W 075°12'0 0.0
2017-Apr-25 21:00N 39°54' W 075°12'0 0.0
2017-Apr-25 20:30N 39°54' W 075°12'0 0.0
2017-Apr-25 20:00N 39°54' W 075°12'0 0.6
2017-Apr-25 19:30N 39°53' W 075°12'0 0.0
2017-Apr-25 19:00N 39°53' W 075°12'0 0.0
2017-Apr-25 18:30N 39°53' W 075°12'0 0.0
2017-Apr-25 18:00N 39°53' W 075°12'0 0.0
2017-Apr-25 17:30N 39°53' W 075°12'0 0.0
2017-Apr-25 17:00N 39°53' W 075°12'0 0.0
2017-Apr-25 16:30N 39°53' W 075°12'0 0.1
2017-Apr-25 16:00N 39°54' W 075°12'3 5.9
2017-Apr-25 15:30N 39°51' W 075°14'1 2.8
2017-Apr-25 15:00N 39°51' W 075°16'0 0.3
2017-Apr-25 14:30N 39°51' W 075°16'3 3.2
2017-Apr-25 13:30N 39°51' W 075°20'0 0.7
2017-Apr-25 13:00N 39°51' W 075°20'2 4.3
2017-Apr-25 12:30N 39°50' W 075°22'1 2.8
2017-Apr-25 12:00N 39°51' W 075°21'0 0.9
2017-Apr-25 11:30N 39°51' W 075°20'0 0.0
2017-Apr-25 11:00N 39°51' W 075°20'0 0.0
2017-Apr-25 10:30N 39°51' W 075°20'0 0.0
2017-Apr-25 10:00N 39°51' W 075°20'0 0.0
2017-Apr-25 09:30N 39°51' W 075°20'0 0.0
2017-Apr-25 09:00N 39°51' W 075°20'0 0.0
2017-Apr-25 08:30N 39°51' W 075°20'0 0.0
2017-Apr-25 07:59N 39°51' W 075°20'0 0.0
2017-Apr-25 07:30N 39°51' W 075°20'0 0.0
2017-Apr-25 07:00N 39°51' W 075°20'0 0.0
2017-Apr-25 06:30N 39°51' W 075°20'0 0.0
2017-Apr-25 06:00N 39°51' W 075°20'0 0.0
2017-Apr-25 05:30N 39°51' W 075°20'0 0.0
2017-Apr-25 05:00N 39°51' W 075°20'3 5.4
2017-Apr-25 04:30N 39°51' W 075°17'1 2.8
2017-Apr-25 04:00N 39°51' W 075°15'3 5.6
2017-Apr-25 03:30N 39°53' W 075°12'1 2.1
2017-Apr-25 03:00N 39°54' W 075°12'0 0.0
2017-Apr-25 02:31N 39°54' W 075°12'0 0.0
2017-Apr-25 02:01N 39°54' W 075°12'0 0.0
2017-Apr-25 01:31N 39°54' W 075°12'0 0.0
2017-Apr-25 01:01N 39°54' W 075°12'0 0.0
2017-Apr-25 00:31N 39°54' W 075°12'0 0.0
2017-Apr-25 00:00N 39°54' W 075°12'0 0.0
2017-Apr-24 23:31N 39°54' W 075°12'0 0.0
2017-Apr-24 23:01N 39°54' W 075°12'0 0.0
2017-Apr-24 22:31N 39°54' W 075°12'0 0.0
2017-Apr-24 22:01N 39°54' W 075°12'0 0.0
2017-Apr-24 21:31N 39°54' W 075°12'0 0.0
2017-Apr-24 21:01N 39°54' W 075°12'0 0.0
2017-Apr-24 20:31N 39°54' W 075°12'0 0.0
2017-Apr-24 20:01N 39°54' W 075°12'0 0.0
2017-Apr-24 19:30N 39°54' W 075°12'0 0.0
2017-Apr-24 19:01N 39°54' W 075°12'0 0.0
2017-Apr-24 18:30N 39°54' W 075°12'0 0.0
2017-Apr-24 18:00N 39°54' W 075°12'0 0.0
2017-Apr-24 17:30N 39°54' W 075°12'0 0.0
2017-Apr-24 17:00N 39°54' W 075°12'0 0.6
2017-Apr-24 16:30N 39°54' W 075°12'0 1.0
2017-Apr-24 16:00N 39°53' W 075°12'0 0.5
2017-Apr-24 15:30N 39°54' W 075°12'0 0.0
2017-Apr-24 15:00N 39°54' W 075°12'0 0.0
2017-Apr-24 14:30N 39°54' W 075°12'0 0.0
2017-Apr-24 13:31N 39°54' W 075°12'0 0.0
2017-Apr-24 13:00N 39°54' W 075°12'0 0.0
2017-Apr-24 12:30N 39°54' W 075°12'0 0.0
2017-Apr-24 12:01N 39°54' W 075°12'0 0.0
2017-Apr-24 11:31N 39°54' W 075°12'0 0.0
2017-Apr-24 11:00N 39°54' W 075°12'0 0.0
2017-Apr-24 10:30N 39°54' W 075°12'0 0.0
2017-Apr-24 10:00N 39°54' W 075°12'0 0.0
2017-Apr-24 09:30N 39°54' W 075°12'0 0.0
2017-Apr-24 09:00N 39°54' W 075°12'0 0.0
2017-Apr-24 08:30N 39°54' W 075°12'0 0.0
2017-Apr-24 08:00N 39°54' W 075°12'0 0.0
2017-Apr-24 07:30N 39°54' W 075°12'0 0.0
2017-Apr-24 07:00N 39°54' W 075°12'0 0.0
2017-Apr-24 06:30N 39°54' W 075°12'0 0.0
2017-Apr-24 06:00N 39°54' W 075°12'0 0.0
2017-Apr-24 05:30N 39°54' W 075°12'0 0.0
2017-Apr-24 05:00N 39°54' W 075°12'0 0.0
2017-Apr-24 04:30N 39°54' W 075°12'0 0.0
2017-Apr-24 04:00N 39°54' W 075°12'0 0.0
2017-Apr-24 03:30N 39°54' W 075°12'0 0.0
2017-Apr-24 03:00N 39°54' W 075°12'0 0.0
2017-Apr-24 02:30N 39°54' W 075°12'0 0.0
2017-Apr-24 02:00N 39°54' W 075°12'0 0.0
2017-Apr-24 01:30N 39°54' W 075°12'3 5.2
2017-Apr-24 01:00N 39°52' W 075°14'1 2.1
2017-Apr-24 00:30N 39°51' W 075°15'0 0.1
2017-Apr-24 00:00N 39°51' W 075°15'0 0.1
2017-Apr-23 23:30N 39°51' W 075°15'0 0.0
2017-Apr-23 23:00N 39°51' W 075°15'4 7.6
2017-Apr-23 22:30N 39°53' W 075°11'1 1.2
2017-Apr-23 22:00N 39°53' W 075°12'1 1.6
2017-Apr-23 21:30N 39°54' W 075°12'0 0.0
2017-Apr-23 21:00N 39°54' W 075°12'0 0.0
2017-Apr-23 20:30N 39°54' W 075°12'0 0.0
2017-Apr-23 20:00N 39°54' W 075°12'0 0.0
2017-Apr-23 19:30N 39°54' W 075°12'3 5.8
2017-Apr-23 19:00N 39°51' W 075°14'5 9.5
2017-Apr-23 18:30N 39°51' W 075°20'0 0.0
2017-Apr-23 18:00N 39°51' W 075°20'0 0.1
2017-Apr-23 17:30N 39°51' W 075°21'0 0.0
2017-Apr-23 17:00N 39°51' W 075°21'0 0.0
2017-Apr-23 16:30N 39°51' W 075°21'0 0.0
2017-Apr-23 16:00N 39°51' W 075°21'0 0.0
2017-Apr-23 15:30N 39°51' W 075°21'3 5.3
2017-Apr-23 15:00N 39°51' W 075°17'1 0.6
2017-Apr-23 14:00N 39°51' W 075°16'3 6.5
2017-Apr-23 13:30N 39°52' W 075°13'4 7.6
2017-Apr-23 13:00N 39°54' W 075°08'4 7.4
2017-Apr-23 12:30N 39°58' W 075°08'4 7.9
2017-Apr-23 12:00N 39°60' W 075°04'4 7.9
2017-Apr-23 11:30N 40°02' W 074°59'4 8.9
2017-Apr-23 11:00N 40°04' W 074°54'5 2.2
2017-Apr-23 08:36N 40°08' W 074°49'1 7.0
2017-Apr-23 08:30N 40°07' W 074°50'4 7.5
2017-Apr-23 08:00N 40°05' W 074°54'4 8.2
2017-Apr-23 07:30N 40°03' W 074°58'4 8.4
2017-Apr-23 07:00N 40°01' W 075°03'4 7.9
2017-Apr-23 06:30N 39°58' W 075°07'4 7.4
2017-Apr-23 06:00N 39°54' W 075°08'3 5.6
2017-Apr-23 05:30N 39°53' W 075°11'1 2.0
2017-Apr-23 05:00N 39°54' W 075°12'0 0.0
2017-Apr-23 04:30N 39°54' W 075°12'0 0.0
2017-Apr-23 04:00N 39°54' W 075°12'0 0.0
2017-Apr-23 03:30N 39°54' W 075°12'3 5.5
2017-Apr-23 03:00N 39°54' W 075°08'1 1.7
2017-Apr-23 02:30N 39°54' W 075°08'0 0.6
2017-Apr-23 02:00N 39°54' W 075°08'0 0.5
2017-Apr-23 01:30N 39°54' W 075°08'1 1.5
2017-Apr-23 01:00N 39°53' W 075°08'2 4.0
2017-Apr-23 00:30N 39°53' W 075°11'2 4.1
2017-Apr-23 00:00N 39°53' W 075°08'1 2.5
2017-Apr-22 23:30N 39°53' W 075°10'2 3.6
2017-Apr-22 23:00N 39°54' W 075°12'0 0.0
2017-Apr-22 22:30N 39°54' W 075°12'0 0.0
2017-Apr-22 22:00N 39°54' W 075°12'0 0.0
2017-Apr-22 21:30N 39°54' W 075°12'0 0.9
2017-Apr-22 21:00N 39°54' W 075°12'0 0.2
2017-Apr-22 20:30N 39°54' W 075°12'0 0.7
2017-Apr-22 20:00N 39°54' W 075°12'0 0.0
2017-Apr-22 19:30N 39°54' W 075°12'0 0.0
2017-Apr-22 19:00N 39°54' W 075°12'0 0.0
2017-Apr-22 18:30N 39°54' W 075°12'0 0.0
2017-Apr-22 18:00N 39°54' W 075°12'0 0.0
2017-Apr-22 17:30N 39°54' W 075°12'2 4.2
2017-Apr-22 17:00N 39°53' W 075°09'2 3.9
2017-Apr-22 16:30N 39°54' W 075°08'0 0.5
2017-Apr-22 16:00N 39°54' W 075°08'3 5.5
2017-Apr-22 15:30N 39°53' W 075°11'1 2.2
2017-Apr-22 15:00N 39°54' W 075°12'0 0.0
2017-Apr-22 14:30N 39°54' W 075°12'0 0.0
2017-Apr-22 13:30N 39°54' W 075°12'0 0.0
2017-Apr-22 13:00N 39°54' W 075°12'0 0.0
2017-Apr-22 12:30N 39°54' W 075°12'0 0.0
2017-Apr-22 12:00N 39°54' W 075°12'0 0.0
2017-Apr-22 11:30N 39°54' W 075°12'0 0.0
2017-Apr-22 11:00N 39°54' W 075°12'0 0.0
2017-Apr-22 10:30N 39°54' W 075°12'0 0.0
2017-Apr-22 10:00N 39°54' W 075°12'0 0.0
2017-Apr-22 09:30N 39°54' W 075°12'0 0.0
2017-Apr-22 09:00N 39°54' W 075°12'0 0.0
2017-Apr-22 08:30N 39°54' W 075°12'0 0.0
2017-Apr-22 08:00N 39°54' W 075°12'0 0.0
2017-Apr-22 07:31N 39°54' W 075°12'4 7.7
2017-Apr-22 07:00N 39°51' W 075°16'5 9.7
2017-Apr-22 06:31N 39°50' W 075°22'2 5.0
2017-Apr-22 06:00N 39°49' W 075°24'0 0.2
2017-Apr-22 05:31N 39°49' W 075°24'2 3.1
2017-Apr-22 05:00N 39°50' W 075°23'5 9.5
2017-Apr-22 04:31N 39°51' W 075°17'4 8.9
2017-Apr-22 04:00N 39°53' W 075°12'1 1.2
2017-Apr-22 03:30N 39°54' W 075°12'0 0.0
2017-Apr-22 03:00N 39°54' W 075°12'0 0.0
2017-Apr-22 02:30N 39°54' W 075°12'0 0.0
2017-Apr-22 02:01N 39°54' W 075°12'0 0.0
2017-Apr-22 01:31N 39°54' W 075°12'0 0.0
2017-Apr-22 01:01N 39°54' W 075°12'0 0.0
2017-Apr-22 00:30N 39°54' W 075°12'0 0.0
2017-Apr-22 00:01N 39°54' W 075°12'0 0.0
2017-Apr-21 23:30N 39°54' W 075°12'0 0.0
2017-Apr-21 23:00N 39°54' W 075°12'0 0.0
2017-Apr-21 22:30N 39°54' W 075°12'0 0.0
2017-Apr-21 22:00N 39°54' W 075°12'0 0.0
2017-Apr-21 21:30N 39°54' W 075°12'0 0.0
2017-Apr-21 21:00N 39°54' W 075°12'0 0.0
2017-Apr-21 20:31N 39°54' W 075°12'0 0.0
2017-Apr-21 20:01N 39°54' W 075°12'1 2.0
2017-Apr-21 19:30N 39°53' W 075°11'4 7.5
2017-Apr-21 19:01N 39°56' W 075°08'2 4.7
2017-Apr-21 18:31N 39°58' W 075°07'0 0.2
2017-Apr-21 18:00N 39°58' W 075°07'1 1.4
2017-Apr-21 17:31N 39°58' W 075°07'3 6.2
2017-Apr-21 17:01N 39°55' W 075°08'1 1.9
2017-Apr-21 16:31N 39°54' W 075°08'3 5.5
2017-Apr-21 16:00N 39°53' W 075°12'0 1.0
2017-Apr-21 15:30N 39°54' W 075°12'0 0.0
2017-Apr-21 15:00N 39°54' W 075°12'0 0.0
2017-Apr-21 14:30N 39°54' W 075°12'0 0.0
2017-Apr-21 13:31N 39°54' W 075°12'0 0.0
2017-Apr-21 13:00N 39°54' W 075°12'0 0.0
2017-Apr-21 12:30N 39°54' W 075°12'0 0.0
2017-Apr-21 12:00N 39°54' W 075°12'0 0.0
2017-Apr-21 11:30N 39°54' W 075°12'0 0.0
2017-Apr-21 11:01N 39°54' W 075°12'0 0.0
2017-Apr-21 10:30N 39°54' W 075°12'1 1.3
2017-Apr-21 10:00N 39°53' W 075°12'611.1
2017-Apr-21 09:31N 39°51' W 075°18'611.6
2017-Apr-21 09:01N 39°48' W 075°25'611.2
2017-Apr-21 08:31N 39°44' W 075°30'611.2
2017-Apr-21 08:00N 39°39' W 075°33'5 9.9
2017-Apr-21 07:30N 39°34' W 075°33'510.5
2017-Apr-21 07:01N 39°29' W 075°34'510.1
2017-Apr-21 06:30N 39°25' W 075°30'510.1
2017-Apr-21 06:00N 39°21' W 075°26'510.0
2017-Apr-21 05:31N 39°17' W 075°22'5 9.8
2017-Apr-21 05:00N 39°13' W 075°18'5 9.8
2017-Apr-21 04:30N 39°09' W 075°14'510.3
2017-Apr-21 04:00N 39°05' W 075°11'510.4
2017-Apr-21 03:30N 38°60' W 075°08'510.3
2017-Apr-21 03:00N 38°55' W 075°06'59 8.6
2017-Apr-20 20:08N 39°33' W 074°07'210.4
2017-Apr-20 19:58N 39°35' W 074°06'5510.3
2017-Apr-20 14:33N 40°30' W 073°56'610.6
2017-Apr-20 14:01N 40°34' W 074°02'611.7
2017-Apr-20 13:30N 40°39' W 074°05'4 7.7
2017-Apr-20 13:00N 40°38' W 074°10'0 0.0
2017-Apr-20 12:30N 40°38' W 074°10'0 0.0
2017-Apr-20 12:01N 40°38' W 074°10'0 0.0
2017-Apr-20 11:30N 40°38' W 074°10'1 2.1
2017-Apr-20 11:01N 40°39' W 074°11'0 0.2
2017-Apr-20 10:26N 40°39' W 074°11'0 0.0
2017-Apr-20 09:57N 40°39' W 074°11'1 1.6
2017-Apr-20 09:30N 40°39' W 074°10'3 5.8
2017-Apr-20 09:01N 40°39' W 074°07'3 5.7
2017-Apr-20 08:30N 40°38' W 074°03'2 3.7
2017-Apr-20 08:00N 40°39' W 074°05'4 7.2
2017-Apr-20 07:30N 40°38' W 074°10'0 0.0
2017-Apr-20 07:00N 40°38' W 074°10'0 0.0
2017-Apr-20 06:30N 40°38' W 074°10'0 0.0
2017-Apr-20 06:00N 40°38' W 074°10'0 0.0
2017-Apr-20 05:30N 40°38' W 074°10'0 0.0
2017-Apr-20 05:00N 40°38' W 074°10'0 0.0
2017-Apr-20 04:30N 40°38' W 074°10'0 0.0
2017-Apr-20 04:00N 40°38' W 074°10'0 0.0
2017-Apr-20 03:30N 40°38' W 074°10'0 0.0
2017-Apr-20 03:00N 40°38' W 074°10'0 0.0
2017-Apr-20 02:31N 40°38' W 074°10'4 1.0
2017-Apr-19 22:46N 40°35' W 074°12'3 9.5
2017-Apr-19 22:29N 40°38' W 074°12'4 8.8
2017-Apr-19 22:00N 40°39' W 074°07'2 4.0
2017-Apr-19 21:30N 40°40' W 074°05'1 2.1
2017-Apr-19 21:00N 40°40' W 074°04'3 5.9
2017-Apr-19 20:30N 40°37' W 074°03'2 3.5
2017-Apr-19 20:01N 40°38' W 074°04'5 9.2
2017-Apr-19 19:30N 40°39' W 074°10'5 3.3
2017-Apr-19 17:52N 40°34' W 074°13'2 4.9
2017-Apr-19 17:30N 40°36' W 074°12'2 4.5
2017-Apr-19 17:00N 40°38' W 074°12'0 0.2
2017-Apr-19 16:30N 40°38' W 074°12'0 0.2
2017-Apr-19 16:00N 40°38' W 074°12'2 3.6
2017-Apr-19 15:30N 40°38' W 074°10'0 0.0
2017-Apr-19 15:01N 40°38' W 074°10'0 0.0
2017-Apr-19 14:30N 40°38' W 074°10'0 0.0
2017-Apr-19 13:30N 40°38' W 074°10'0 0.0
2017-Apr-19 13:00N 40°38' W 074°10'0 0.0
2017-Apr-19 12:30N 40°38' W 074°10'0 0.0
2017-Apr-19 12:01N 40°38' W 074°10'0 0.0
2017-Apr-19 11:30N 40°38' W 074°10'0 0.0
2017-Apr-19 11:00N 40°38' W 074°10'0 0.0
2017-Apr-19 10:30N 40°38' W 074°10'0 0.0
2017-Apr-19 10:00N 40°38' W 074°10'0 0.0
2017-Apr-19 09:31N 40°38' W 074°10'0 0.0
2017-Apr-19 09:01N 40°38' W 074°10'0 0.0
2017-Apr-19 08:30N 40°38' W 074°10'0 0.0
2017-Apr-19 08:00N 40°38' W 074°10'0 0.0
2017-Apr-19 07:30N 40°38' W 074°10'0 0.0
2017-Apr-19 07:00N 40°38' W 074°10'0 0.0
2017-Apr-19 06:30N 40°38' W 074°10'0 0.0
2017-Apr-19 05:59N 40°38' W 074°10'0 0.0
2017-Apr-19 05:30N 40°38' W 074°10'0 0.0
2017-Apr-19 05:00N 40°38' W 074°10'0 0.0
2017-Apr-19 04:30N 40°38' W 074°10'0 0.0
2017-Apr-19 04:00N 40°38' W 074°10'0 0.0
2017-Apr-19 03:30N 40°38' W 074°10'0 0.0
2017-Apr-19 03:00N 40°38' W 074°10'0 0.0
2017-Apr-19 02:30N 40°38' W 074°10'0 0.0
2017-Apr-19 02:00N 40°38' W 074°10'0 0.0
2017-Apr-19 01:30N 40°38' W 074°10'0 0.0
2017-Apr-19 01:00N 40°38' W 074°10'0 0.0
2017-Apr-19 00:30N 40°38' W 074°10'0 0.0
2017-Apr-19 00:00N 40°38' W 074°10'0 0.0
2017-Apr-18 23:30N 40°38' W 074°10'0 0.0
2017-Apr-18 22:59N 40°38' W 074°10'0 0.0
2017-Apr-18 22:30N 40°38' W 074°10'0 0.9
2017-Apr-18 22:00N 40°38' W 074°09'1 2.0
2017-Apr-18 21:30N 40°39' W 074°09'1 2.9
2017-Apr-18 21:00N 40°41' W 074°09'0 0.1
2017-Apr-18 20:30N 40°41' W 074°09'0 0.0
2017-Apr-18 20:00N 40°41' W 074°09'1 1.7
2017-Apr-18 19:30N 40°40' W 074°09'2 3.5
2017-Apr-18 19:00N 40°38' W 074°10'0 0.0
2017-Apr-18 18:30N 40°38' W 074°10'0 0.0
2017-Apr-18 18:00N 40°38' W 074°10'0 0.0
2017-Apr-18 17:30N 40°38' W 074°10'0 0.0
2017-Apr-18 17:00N 40°38' W 074°10'0 0.0
2017-Apr-18 16:30N 40°38' W 074°10'0 0.0
2017-Apr-18 16:00N 40°38' W 074°10'0 0.0
2017-Apr-18 15:29N 40°38' W 074°10'0 0.0
2017-Apr-18 15:00N 40°38' W 074°10'0 0.0
2017-Apr-18 14:30N 40°38' W 074°10'0 0.0
2017-Apr-18 13:30N 40°38' W 074°10'0 0.1
2017-Apr-18 12:59N 40°38' W 074°10'0 0.0
2017-Apr-18 12:30N 40°38' W 074°10'0 0.0
2017-Apr-18 12:00N 40°38' W 074°10'0 0.0
2017-Apr-18 11:30N 40°38' W 074°10'0 0.0
2017-Apr-18 11:00N 40°38' W 074°10'0 0.0
2017-Apr-18 10:30N 40°38' W 074°10'0 0.0
2017-Apr-18 10:00N 40°38' W 074°10'0 0.0
2017-Apr-18 09:30N 40°38' W 074°10'2 3.1
2017-Apr-18 09:00N 40°40' W 074°09'0 0.2
2017-Apr-18 08:30N 40°40' W 074°09'0 0.0
2017-Apr-18 08:00N 40°40' W 074°09'0 0.4
2017-Apr-18 07:30N 40°40' W 074°09'2 4.4
2017-Apr-18 07:00N 40°38' W 074°11'1 1.5
2017-Apr-18 06:30N 40°38' W 074°12'0 0.0
2017-Apr-18 06:00N 40°38' W 074°12'1 2.1
2017-Apr-18 05:30N 40°39' W 074°11'2 5.0
2017-Apr-18 05:00N 40°39' W 074°08'2 5.0
2017-Apr-18 04:30N 40°39' W 074°05'2 4.0
2017-Apr-18 04:00N 40°37' W 074°03'1 2.7
2017-Apr-18 03:30N 40°39' W 074°04'4 7.3
2017-Apr-18 03:00N 40°38' W 074°09'1 1.6
2017-Apr-18 02:30N 40°38' W 074°10'0 0.0
2017-Apr-18 02:00N 40°38' W 074°10'0 0.0
2017-Apr-18 01:30N 40°38' W 074°10'0 0.0
2017-Apr-18 01:00N 40°38' W 074°10'0 0.0
2017-Apr-18 00:30N 40°38' W 074°10'0 0.0
2017-Apr-18 00:00N 40°38' W 074°10'0 0.0
2017-Apr-17 23:30N 40°38' W 074°10'0 0.0
2017-Apr-17 23:00N 40°38' W 074°10'2 5.0
2017-Apr-17 22:30N 40°41' W 074°09'0 0.8
2017-Apr-17 22:00N 40°41' W 074°08'1 2.4
2017-Apr-17 21:30N 40°39' W 074°09'2 3.3
2017-Apr-17 21:00N 40°39' W 074°07'3 5.5
2017-Apr-17 20:30N 40°38' W 074°03'2 3.7
2017-Apr-17 20:00N 40°36' W 074°02'4 8.6
2017-Apr-17 19:30N 40°40' W 074°05'1 1.3
2017-Apr-17 19:00N 40°40' W 074°04'  

Dump ship's entire track history